Aérodrome :
LOGIN :

S'inscrire | Disclaimer

   EN    FR    IT 

 










Légende :    VFR   VFR Marginal   IFR   IFR Intensif   IFR Très Intensif
Visi : 
Plafond : 
>= 8 km
>= 3000ft
5 à 8 km
1000 à 3000 ft
1500m à 5 km
500 à 1000 ft
800 à 1500m
200 à 500 ft
< 800m
< 200 ft
Symboles :   Orages  Brouillard  Fortes neiges  Fortes précipitations  Vent > 20 kt
SIGMETs :   Divers  Orages  Givrage  Turbulence  Onde Orograph.  Cendres Volcan.






- Altitude de l'aérodrome : 32 ft
- Code IATA : LKZ


EGUL - RAF Lakenheath

DERNIER METAR :
  • 230910Z 31006KT 9999 BKN026 SCT032 20/14 A2997 RMK AO2A SLP152 FZRANO $

METARs EXPIRÉS :
  • 230900Z 33005KT 9999 BKN032 20/13 A2996 RMK AO2A SLP149 FZRANO $
  • 230840Z 32005KT 9999 SCT022 BKN029 19/14 A2997 RMK AO2A SLP152 FZRANO $
  • 230755Z 29004KT 9999 BKN038 17/14 A2996 RMK AO2A DZB01E07 SLP149 P0000 T01710142 FZRANO $
  • 230701Z COR 31003KT 9999 BKN036 18/15 A2995 RMK SLP145 T01750148 FZRANO $ COR 0702
  • 230606Z 00000KT 9999 BKN035 16/14 A2994 RMK SLP142 P0000 T01590137 FZRANO $
  • 230555Z AUTO 00000KT 9999 FEW035 SCT047 16/14 A2994 RMK AO2 RAE15DZB15E18 SLP142 P0001 60008 T01580138 10195 20144 52009 FZRANO $
  • 230518Z AUTO 19004KT 9999 SCT027 16/15 A2993 RMK AO2 RAE15DZB15E18 SLP139 FZRANO $
  • 230505Z AUTO 00000KT 9999 -RA OVC025 15/13 A2993 RMK AO2 VIS 3600 RWY06 SLP139 FZRANO $
  • 230455Z AUTO 26004KT 8000 +RA BR BKN021 OVC030 16/14 A2993 RMK AO2 VIS 2600 RWY06 RAB22E23DZB23E24RAB24 CIG 021V030 SLP139 P0007 T01600138 FZRANO $
  • 230442Z AUTO 26007KT 9999 -RA OVC028 18/15 A2992 RMK AO2 RAB22E23DZB23E24RAB24 SLP135 FZRANO $
  • 230422Z AUTO 28003KT 9999 -RA OVC029 18/15 A2992 RMK AO2 RAB22 SLP135 FZRANO $

TAF AMD TAF EGUL
Valide du 23 à 06h jusqu'au 24 à 11h UTC


230631Z 2306/2411 VRB04KT 8000 -SHRA BKN030 QNH2992INS
BECMG 2308/2309 32010G15KT 9999 NSW BKN030 QNH2993INS
BECMG 2312/2313 34010G15KT 9999 BKN040 QNH2994INS
TEMPO 2313/2316 9000 -SHRA BKN025
BECMG 2316/2317 03010G15KT 9999 BKN035 BKN080 QNH2996INS
BECMG 2320/2321 04007KT 9999 SCT025 SCT080 QNH2998INS
BECMG 2400/2401 VRB04KT 6000 BR SCT080 QNH3002INS
BECMG 2405/2406 VRB04KT 8000 BR SCT100 QNH3010INS
BECMG 2408/2409 VRB06KT 9999 NSW SCT050 QNH3017INS TX21/2314Z TN18/2306Z



MET'MAP, la Météo Aéronautique d'un coup d'oeil ! - Copyright ORBIFLY Décembre 2007 - Disclaimer

ORBIFLY MET'MAP TEAM :

Programmation & Développement : Alexandra Zaïnal
Sur une idée originale de : Baudouin d'Aumeries
Soutien technique & logistique : Manuel Goepfert
Assistance : Marc-Olivier Méhu




SOURCES & CREDITS :

   NOAA